sensor_id;sensor_type;location;lat;lon;timestamp;pressure;altitude;pressure_sealevel;temperature;humidity
21129;BME280;10722;51.910;8.352;2023-03-25T00:00:11;99411.50;;;9.00;94.90
21129;BME280;10722;51.910;8.352;2023-03-25T00:02:57;99406.38;;;9.04;94.42
21129;BME280;10722;51.910;8.352;2023-03-25T00:05:42;99404.63;;;9.02;94.30
21129;BME280;10722;51.910;8.352;2023-03-25T00:08:28;99406.38;;;9.12;93.55
21129;BME280;10722;51.910;8.352;2023-03-25T00:11:13;99404.66;;;9.14;93.45
21129;BME280;10722;51.910;8.352;2023-03-25T00:13:58;99410.69;;;9.10;93.23
21129;BME280;10722;51.910;8.352;2023-03-25T00:16:43;99408.13;;;9.19;92.79
21129;BME280;10722;51.910;8.352;2023-03-25T00:19:29;99412.41;;;9.15;92.77
21129;BME280;10722;51.910;8.352;2023-03-25T00:22:14;99400.34;;;9.14;92.67
21129;BME280;10722;51.910;8.352;2023-03-25T00:24:59;99403.81;;;9.23;92.33
21129;BME280;10722;51.910;8.352;2023-03-25T00:27:44;99402.94;;;9.17;92.01
21129;BME280;10722;51.910;8.352;2023-03-25T00:30:29;99402.09;;;9.18;92.39
21129;BME280;10722;51.910;8.352;2023-03-25T00:33:15;99406.38;;;9.16;92.85
21129;BME280;10722;51.910;8.352;2023-03-25T00:36:01;99414.97;;;9.11;93.26
21129;BME280;10722;51.910;8.352;2023-03-25T00:38:47;99419.25;;;8.96;94.46
21129;BME280;10722;51.910;8.352;2023-03-25T00:41:33;99430.41;;;8.97;94.87
21129;BME280;10722;51.910;8.352;2023-03-25T00:44:18;99441.63;;;9.02;94.85
21129;BME280;10722;51.910;8.352;2023-03-25T00:47:03;99437.28;;;8.96;95.28
21129;BME280;10722;51.910;8.352;2023-03-25T00:49:49;99446.72;;;8.88;96.07
21129;BME280;10722;51.910;8.352;2023-03-25T00:52:34;99463.91;;;8.89;96.37
21129;BME280;10722;51.910;8.352;2023-03-25T00:55:20;99469.06;;;8.88;96.75
21129;BME280;10722;51.910;8.352;2023-03-25T00:58:06;99475.97;;;8.92;96.73
21129;BME280;10722;51.910;8.352;2023-03-25T01:00:50;99468.22;;;8.90;96.80
21129;BME280;10722;51.910;8.352;2023-03-25T01:03:38;99468.22;;;8.87;97.12
21129;BME280;10722;51.910;8.352;2023-03-25T01:06:31;99466.47;;;8.83;97.52
21129;BME280;10722;51.910;8.352;2023-03-25T01:09:17;99453.59;;;8.86;97.65
21129;BME280;10722;51.910;8.352;2023-03-25T01:12:03;99462.16;;;8.81;98.05
21129;BME280;10722;51.910;8.352;2023-03-25T01:14:48;99475.91;;;8.80;98.16
21129;BME280;10722;51.910;8.352;2023-03-25T01:17:33;99475.91;;;8.77;98.56
21129;BME280;10722;51.910;8.352;2023-03-25T01:20:19;99471.59;;;8.77;98.41
21129;BME280;10722;51.910;8.352;2023-03-25T01:23:04;99471.56;;;8.71;99.12
21129;BME280;10722;51.910;8.352;2023-03-25T01:25:49;99487.00;;;8.66;99.45
21129;BME280;10722;51.910;8.352;2023-03-25T01:28:35;99479.31;;;8.74;99.41
21129;BME280;10722;51.910;8.352;2023-03-25T01:31:20;99468.13;;;8.72;99.19
21129;BME280;10722;51.910;8.352;2023-03-25T01:34:06;99463.84;;;8.72;98.93
21129;BME280;10722;51.910;8.352;2023-03-25T01:36:51;99471.56;;;8.71;99.17
21129;BME280;10722;51.910;8.352;2023-03-25T01:39:37;99476.72;;;8.71;98.83
21129;BME280;10722;51.910;8.352;2023-03-25T01:42:22;99456.13;;;8.74;98.38
21129;BME280;10722;51.910;8.352;2023-03-25T01:45:14;99453.53;;;8.75;97.79
21129;BME280;10722;51.910;8.352;2023-03-25T01:48:05;99459.56;;;8.73;97.55
21129;BME280;10722;51.910;8.352;2023-03-25T01:50:54;99452.66;;;8.69;97.54
21129;BME280;10722;51.910;8.352;2023-03-25T01:53:42;99450.09;;;8.78;96.59
21129;BME280;10722;51.910;8.352;2023-03-25T01:56:32;99438.06;;;8.74;96.02
21129;BME280;10722;51.910;8.352;2023-03-25T01:59:21;99435.50;;;8.74;95.73
21129;BME280;10722;51.910;8.352;2023-03-25T02:02:08;99428.63;;;8.76;95.18
21129;BME280;10722;51.910;8.352;2023-03-25T02:05:02;99420.00;;;8.75;94.56
21129;BME280;10722;51.910;8.352;2023-03-25T02:07:48;99396.81;;;8.75;94.34
21129;BME280;10722;51.910;8.352;2023-03-25T02:10:35;99389.91;;;8.71;93.96
21129;BME280;10722;51.910;8.352;2023-03-25T02:13:21;99393.38;;;8.73;93.75
21129;BME280;10722;51.910;8.352;2023-03-25T02:38:14;99401.97;;;8.71;92.73
21129;BME280;10722;51.910;8.352;2023-03-25T02:41:22;99385.63;;;8.70;93.07
21129;BME280;10722;51.910;8.352;2023-03-25T02:47:08;99386.47;;;8.72;93.23
21129;BME280;10722;51.910;8.352;2023-03-25T02:49:59;99404.50;;;8.60;93.66
21129;BME280;10722;51.910;8.352;2023-03-25T02:52:49;99400.13;;;8.50;94.11
21129;BME280;10722;51.910;8.352;2023-03-25T02:55:36;99407.75;;;8.33;96.14
21129;BME280;10722;51.910;8.352;2023-03-25T02:58:23;99460.69;;;7.86;98.64
21129;BME280;10722;51.910;8.352;2023-03-25T03:01:08;99464.03;;;7.75;100.00
21129;BME280;10722;51.910;8.352;2023-03-25T03:03:55;99482.00;;;7.69;100.00
21129;BME280;10722;51.910;8.352;2023-03-25T03:06:42;99485.41;;;7.69;100.00
21129;BME280;10722;51.910;8.352;2023-03-25T03:09:37;99504.28;;;7.68;100.00
21129;BME280;10722;51.910;8.352;2023-03-25T03:12:40;99503.41;;;7.66;100.00
21129;BME280;10722;51.910;8.352;2023-03-25T03:15:57;99506.00;;;7.66;100.00
21129;BME280;10722;51.910;8.352;2023-03-25T03:19:07;99503.44;;;7.71;100.00
21129;BME280;10722;51.910;8.352;2023-03-25T03:25:30;99503.34;;;7.61;100.00
21129;BME280;10722;51.910;8.352;2023-03-25T03:28:23;99499.84;;;7.53;100.00
21129;BME280;10722;51.910;8.352;2023-03-25T03:31:18;99490.38;;;7.49;100.00
21129;BME280;10722;51.910;8.352;2023-03-25T03:34:30;99501.50;;;7.48;100.00
21129;BME280;10722;51.910;8.352;2023-03-25T03:37:23;99503.25;;;7.49;100.00
21129;BME280;10722;51.910;8.352;2023-03-25T03:40:15;99493.81;;;7.50;100.00
21129;BME280;10722;51.910;8.352;2023-03-25T03:43:21;99505.84;;;7.54;100.00
21129;BME280;10722;51.910;8.352;2023-03-25T03:49:34;99491.38;;;7.63;100.00
21129;BME280;10722;51.910;8.352;2023-03-25T03:52:38;99482.84;;;7.69;100.00
21129;BME280;10722;51.910;8.352;2023-03-25T03:55:36;99476.88;;;7.76;100.00
21129;BME280;10722;51.910;8.352;2023-03-25T03:58:27;99476.88;;;7.75;100.00
21129;BME280;10722;51.910;8.352;2023-03-25T04:04:21;99456.31;;;7.78;100.00
21129;BME280;10722;51.910;8.352;2023-03-25T04:07:13;99458.94;;;7.84;100.00
21129;BME280;10722;51.910;8.352;2023-03-25T04:10:17;99462.34;;;7.80;100.00
21129;BME280;10722;51.910;8.352;2023-03-25T04:13:08;99437.53;;;7.90;100.00
21129;BME280;10722;51.910;8.352;2023-03-25T04:15:57;99440.09;;;7.90;100.00
21129;BME280;10722;51.910;8.352;2023-03-25T04:18:43;99428.09;;;7.89;100.00
21129;BME280;10722;51.910;8.352;2023-03-25T04:21:28;99441.91;;;8.01;100.00
21129;BME280;10722;51.910;8.352;2023-03-25T04:24:14;99413.59;;;8.07;100.00
21129;BME280;10722;51.910;8.352;2023-03-25T04:27:00;99399.00;;;8.03;100.00
21129;BME280;10722;51.910;8.352;2023-03-25T04:29:45;99398.06;;;7.95;100.00
21129;BME280;10722;51.910;8.352;2023-03-25T04:32:30;99387.81;;;8.00;99.91
21129;BME280;10722;51.910;8.352;2023-03-25T04:35:17;99379.28;;;8.08;99.08
21129;BME280;10722;51.910;8.352;2023-03-25T04:38:03;99379.25;;;8.04;98.51
21129;BME280;10722;51.910;8.352;2023-03-25T04:40:48;99380.97;;;8.06;97.54
21129;BME280;10722;51.910;8.352;2023-03-25T04:43:33;99375.84;;;8.13;96.95
21129;BME280;10722;51.910;8.352;2023-03-25T04:46:19;99368.97;;;8.07;96.95
21129;BME280;10722;51.910;8.352;2023-03-25T04:49:04;99371.53;;;8.05;96.79
21129;BME280;10722;51.910;8.352;2023-03-25T04:51:52;99357.81;;;8.06;96.42
21129;BME280;10722;51.910;8.352;2023-03-25T04:54:38;99371.56;;;8.08;96.15
21129;BME280;10722;51.910;8.352;2023-03-25T04:57:23;99363.84;;;8.12;95.23
21129;BME280;10722;51.910;8.352;2023-03-25T05:00:09;99356.97;;;8.09;95.06
21129;BME280;10722;51.910;8.352;2023-03-25T05:02:55;99350.13;;;8.16;94.67
21129;BME280;10722;51.910;8.352;2023-03-25T05:05:40;99338.06;;;8.07;94.84
21129;BME280;10722;51.910;8.352;2023-03-25T05:08:26;99350.09;;;8.13;94.40
21129;BME280;10722;51.910;8.352;2023-03-25T05:11:11;99350.97;;;8.15;94.18
21129;BME280;10722;51.910;8.352;2023-03-25T05:13:56;99359.53;;;8.09;94.74
21129;BME280;10722;51.910;8.352;2023-03-25T05:16:42;99368.97;;;8.05;94.52
21129;BME280;10722;51.910;8.352;2023-03-25T05:19:27;99373.25;;;8.06;94.56
21129;BME280;10722;51.910;8.352;2023-03-25T05:22:12;99387.88;;;8.11;94.06
21129;BME280;10722;51.910;8.352;2023-03-25T05:24:58;99392.09;;;7.99;95.01
21129;BME280;10722;51.910;8.352;2023-03-25T05:27:43;99390.28;;;7.86;95.58
21129;BME280;10722;51.910;8.352;2023-03-25T05:30:29;99416.06;;;7.86;96.06
21129;BME280;10722;51.910;8.352;2023-03-25T05:33:15;99426.38;;;7.92;96.62
21129;BME280;10722;51.910;8.352;2023-03-25T05:36:04;99407.50;;;7.93;96.84
21129;BME280;10722;51.910;8.352;2023-03-25T05:38:53;99413.50;;;7.91;97.22
21129;BME280;10722;51.910;8.352;2023-03-25T05:41:38;99408.38;;;7.92;97.60
21129;BME280;10722;51.910;8.352;2023-03-25T05:44:24;99410.09;;;7.92;97.40
21129;BME280;10722;51.910;8.352;2023-03-25T05:47:09;99423.78;;;7.89;98.25
21129;BME280;10722;51.910;8.352;2023-03-25T05:49:55;99422.13;;;7.94;98.12
21129;BME280;10722;51.910;8.352;2023-03-25T05:52:40;99437.56;;;7.96;98.17
21129;BME280;10722;51.910;8.352;2023-03-25T05:55:26;99431.56;;;7.95;98.34
21129;BME280;10722;51.910;8.352;2023-03-25T05:58:11;99448.66;;;7.87;98.92
21129;BME280;10722;51.910;8.352;2023-03-25T06:00:57;99457.25;;;7.88;99.37
21129;BME280;10722;51.910;8.352;2023-03-25T06:03:43;99448.69;;;7.89;99.75
21129;BME280;10722;51.910;8.352;2023-03-25T06:06:30;99456.44;;;7.92;99.77
21129;BME280;10722;51.910;8.352;2023-03-25T06:09:15;99452.13;;;7.92;100.00
21129;BME280;10722;51.910;8.352;2023-03-25T06:12:02;99444.47;;;8.00;99.33
21129;BME280;10722;51.910;8.352;2023-03-25T06:14:48;99441.94;;;8.03;98.71
21129;BME280;10722;51.910;8.352;2023-03-25T06:17:33;99438.50;;;8.07;98.45
21129;BME280;10722;51.910;8.352;2023-03-25T06:20:18;99438.53;;;8.08;97.91
21129;BME280;10722;51.910;8.352;2023-03-25T06:23:04;99439.38;;;8.11;97.62
21129;BME280;10722;51.910;8.352;2023-03-25T06:25:49;99427.41;;;8.14;96.93
21129;BME280;10722;51.910;8.352;2023-03-25T06:28:35;99422.25;;;8.14;97.01
21129;BME280;10722;51.910;8.352;2023-03-25T06:31:22;99417.97;;;8.18;96.54
21129;BME280;10722;51.910;8.352;2023-03-25T06:34:08;99432.56;;;8.17;96.57
21129;BME280;10722;51.910;8.352;2023-03-25T06:36:53;99427.44;;;8.17;96.38
21129;BME280;10722;51.910;8.352;2023-03-25T06:39:39;99432.50;;;8.08;96.74
21129;BME280;10722;51.910;8.352;2023-03-25T06:42:25;99449.66;;;8.07;97.42
21129;BME280;10722;51.910;8.352;2023-03-25T06:45:11;99454.00;;;8.08;97.71
21129;BME280;10722;51.910;8.352;2023-03-25T06:47:56;99466.81;;;8.04;98.21
21129;BME280;10722;51.910;8.352;2023-03-25T06:50:42;99466.00;;;8.09;98.46
21129;BME280;10722;51.910;8.352;2023-03-25T06:53:27;99442.84;;;8.13;98.21
21129;BME280;10722;51.910;8.352;2023-03-25T06:56:13;99452.28;;;8.14;98.16
21129;BME280;10722;51.910;8.352;2023-03-25T06:58:58;99458.31;;;8.16;98.67
21129;BME280;10722;51.910;8.352;2023-03-25T07:01:44;99448.03;;;8.19;98.87
21129;BME280;10722;51.910;8.352;2023-03-25T07:04:29;99467.72;;;8.09;98.99
21129;BME280;10722;51.910;8.352;2023-03-25T07:07:14;99474.50;;;7.99;100.00
21129;BME280;10722;51.910;8.352;2023-03-25T07:09:59;99473.63;;;7.94;100.00
21129;BME280;10722;51.910;8.352;2023-03-25T07:12:44;99485.53;;;7.84;100.00
21129;BME280;10722;51.910;8.352;2023-03-25T07:15:30;99491.47;;;7.74;100.00
21129;BME280;10722;51.910;8.352;2023-03-25T07:18:15;99508.53;;;7.64;100.00
21129;BME280;10722;51.910;8.352;2023-03-25T07:21:01;99510.16;;;7.56;100.00
21129;BME280;10722;51.910;8.352;2023-03-25T07:23:46;99513.50;;;7.46;100.00
21129;BME280;10722;51.910;8.352;2023-03-25T07:26:31;99522.03;;;7.40;100.00
21129;BME280;10722;51.910;8.352;2023-03-25T07:29:18;99528.84;;;7.38;100.00
21129;BME280;10722;51.910;8.352;2023-03-25T07:32:04;99521.13;;;7.38;100.00
21129;BME280;10722;51.910;8.352;2023-03-25T07:34:50;99525.44;;;7.38;100.00
21129;BME280;10722;51.910;8.352;2023-03-25T07:37:35;99521.09;;;7.37;100.00
21129;BME280;10722;51.910;8.352;2023-03-25T07:40:21;99529.81;;;7.48;100.00
21129;BME280;10722;51.910;8.352;2023-03-25T07:43:06;99511.00;;;7.54;100.00
21129;BME280;10722;51.910;8.352;2023-03-25T07:45:52;99507.66;;;7.61;100.00
21129;BME280;10722;51.910;8.352;2023-03-25T07:48:38;99511.97;;;7.63;100.00
21129;BME280;10722;51.910;8.352;2023-03-25T07:51:23;99503.44;;;7.69;100.00
21129;BME280;10722;51.910;8.352;2023-03-25T07:54:09;99513.75;;;7.71;100.00
21129;BME280;10722;51.910;8.352;2023-03-25T07:56:54;99497.50;;;7.79;100.00
21129;BME280;10722;51.910;8.352;2023-03-25T07:59:39;99505.31;;;7.85;100.00
21129;BME280;10722;51.910;8.352;2023-03-25T08:02:24;99506.28;;;8.01;100.00
21129;BME280;10722;51.910;8.352;2023-03-25T08:05:09;99489.22;;;8.11;100.00
21129;BME280;10722;51.910;8.352;2023-03-25T08:07:54;99476.34;;;8.16;100.00
21129;BME280;10722;51.910;8.352;2023-03-25T08:10:44;99479.88;;;8.30;100.00
21129;BME280;10722;51.910;8.352;2023-03-25T08:13:30;99476.50;;;8.37;100.00
21129;BME280;10722;51.910;8.352;2023-03-25T08:16:15;99461.13;;;8.49;100.00
21129;BME280;10722;51.910;8.352;2023-03-25T08:19:01;99461.25;;;8.68;100.00
21129;BME280;10722;51.910;8.352;2023-03-25T08:21:47;99450.16;;;8.87;98.50
21129;BME280;10722;51.910;8.352;2023-03-25T08:24:33;99420.13;;;9.05;96.56
21129;BME280;10722;51.910;8.352;2023-03-25T08:27:18;99409.81;;;8.98;94.68
21129;BME280;10722;51.910;8.352;2023-03-25T08:30:06;99389.13;;;8.97;94.36
21129;BME280;10722;51.910;8.352;2023-03-25T08:32:52;99396.00;;;8.95;93.83
21129;BME280;10722;51.910;8.352;2023-03-25T08:35:39;99413.19;;;8.91;92.21
21129;BME280;10722;51.910;8.352;2023-03-25T08:38:25;99368.47;;;8.92;91.51
21129;BME280;10722;51.910;8.352;2023-03-25T08:41:11;99377.94;;;8.92;91.21
21129;BME280;10722;51.910;8.352;2023-03-25T08:43:57;99386.56;;;8.95;90.90
21129;BME280;10722;51.910;8.352;2023-03-25T08:46:42;99401.19;;;8.96;90.85
21129;BME280;10722;51.910;8.352;2023-03-25T08:49:28;99374.56;;;9.07;90.48
21129;BME280;10722;51.910;8.352;2023-03-25T08:52:14;99387.47;;;9.07;90.40
21129;BME280;10722;51.910;8.352;2023-03-25T08:55:00;99367.66;;;9.06;90.32
21129;BME280;10722;51.910;8.352;2023-03-25T08:57:45;99379.72;;;9.05;89.22
21129;BME280;10722;51.910;8.352;2023-03-25T09:00:30;99374.56;;;9.07;88.57
21129;BME280;10722;51.910;8.352;2023-03-25T09:03:17;99371.13;;;9.12;88.35
21129;BME280;10722;51.910;8.352;2023-03-25T09:06:03;99373.72;;;9.18;87.40
21129;BME280;10722;51.910;8.352;2023-03-25T09:08:49;99364.25;;;9.13;86.49
21129;BME280;10722;51.910;8.352;2023-03-25T09:11:34;99389.22;;;9.34;86.64
21129;BME280;10722;51.910;8.352;2023-03-25T09:14:21;99334.16;;;9.30;84.93
21129;BME280;10722;51.910;8.352;2023-03-25T09:17:06;99329.00;;;9.38;84.39
21129;BME280;10722;51.910;8.352;2023-03-25T09:19:51;99344.47;;;9.81;82.75
21129;BME280;10722;51.910;8.352;2023-03-25T09:22:39;99324.66;;;9.68;82.63
21129;BME280;10722;51.910;8.352;2023-03-25T09:25:24;99324.66;;;9.74;82.82
21129;BME280;10722;51.910;8.352;2023-03-25T09:28:09;99302.31;;;9.45;81.86
21129;BME280;10722;51.910;8.352;2023-03-25T09:30:55;99317.81;;;9.47;82.04
21129;BME280;10722;51.910;8.352;2023-03-25T09:33:40;99318.66;;;9.61;82.48
21129;BME280;10722;51.910;8.352;2023-03-25T09:36:25;99316.09;;;9.50;82.38
21129;BME280;10722;51.910;8.352;2023-03-25T09:39:11;99321.25;;;9.47;82.21
21129;BME280;10722;51.910;8.352;2023-03-25T09:42:29;99335.88;;;9.74;82.22
21129;BME280;10722;51.910;8.352;2023-03-25T09:45:34;99302.31;;;9.59;80.96
21129;BME280;10722;51.910;8.352;2023-03-25T09:48:28;99306.63;;;9.52;80.63
21129;BME280;10722;51.910;8.352;2023-03-25T09:51:25;99322.13;;;9.49;81.33
21129;BME280;10722;51.910;8.352;2023-03-25T09:54:28;99328.13;;;9.33;81.18
21129;BME280;10722;51.910;8.352;2023-03-25T09:57:19;99347.06;;;9.38;81.73
21129;BME280;10722;51.910;8.352;2023-03-25T10:00:06;99345.34;;;9.48;81.88
21129;BME280;10722;51.910;8.352;2023-03-25T10:03:13;99370.31;;;9.52;82.51
21129;BME280;10722;51.910;8.352;2023-03-25T10:06:15;99390.97;;;9.61;83.37
21129;BME280;10722;51.910;8.352;2023-03-25T10:12:19;99417.63;;;9.45;84.35
21129;BME280;10722;51.910;8.352;2023-03-25T10:15:15;99387.50;;;9.45;83.92
21129;BME280;10722;51.910;8.352;2023-03-25T10:21:57;99384.03;;;9.98;83.08
21129;BME280;10722;51.910;8.352;2023-03-25T10:24:59;99390.06;;;9.88;82.91
21129;BME280;10722;51.910;8.352;2023-03-25T10:27:48;99360.81;;;9.86;82.26
21129;BME280;10722;51.910;8.352;2023-03-25T10:30:40;99365.97;;;9.97;82.74
21129;BME280;10722;51.910;8.352;2023-03-25T10:33:40;99405.59;;;9.77;83.12
21129;BME280;10722;51.910;8.352;2023-03-25T10:36:41;99423.69;;;9.80;83.34
21129;BME280;10722;51.910;8.352;2023-03-25T10:39:30;99397.84;;;9.57;83.81
21129;BME280;10722;51.910;8.352;2023-03-25T10:42:26;99415.06;;;9.81;84.16
21129;BME280;10722;51.910;8.352;2023-03-25T10:45:14;99417.63;;;9.64;84.86
21129;BME280;10722;51.910;8.352;2023-03-25T10:51:28;99456.38;;;10.37;85.71
21129;BME280;10722;51.910;8.352;2023-03-25T10:54:15;99431.38;;;10.40;85.46
21129;BME280;10722;51.910;8.352;2023-03-25T10:57:05;99439.84;;;10.81;85.10
21129;BME280;10722;51.910;8.352;2023-03-25T11:00:20;99395.19;;;10.22;83.45
21129;BME280;10722;51.910;8.352;2023-03-25T11:03:15;99405.53;;;10.36;84.12
21129;BME280;10722;51.910;8.352;2023-03-25T11:06:19;99403.81;;;10.13;83.07
21129;BME280;10722;51.910;8.352;2023-03-25T11:09:29;99417.63;;;9.74;83.69
21129;BME280;10722;51.910;8.352;2023-03-25T11:12:17;99444.25;;;9.31;86.69
21129;BME280;10722;51.910;8.352;2023-03-25T11:15:24;99498.44;;;9.22;90.48
21129;BME280;10722;51.910;8.352;2023-03-25T11:18:15;99514.06;;;9.80;91.54
21129;BME280;10722;51.910;8.352;2023-03-25T11:21:08;99539.13;;;10.30;91.08
21129;BME280;10722;51.910;8.352;2023-03-25T11:23:57;99470.16;;;9.85;88.62
21129;BME280;10722;51.910;8.352;2023-03-25T11:26:45;99482.22;;;10.03;88.15
21129;BME280;10722;51.910;8.352;2023-03-25T11:29:34;99472.72;;;10.23;87.28
21129;BME280;10722;51.910;8.352;2023-03-25T11:32:34;99470.06;;;10.82;87.05
21129;BME280;10722;51.910;8.352;2023-03-25T11:35:25;99431.28;;;10.66;85.19
21129;BME280;10722;51.910;8.352;2023-03-25T11:38:14;99404.47;;;10.89;84.35
21129;BME280;10722;51.910;8.352;2023-03-25T11:41:00;99393.19;;;10.97;83.24
21129;BME280;10722;51.910;8.352;2023-03-25T11:43:49;99390.03;;;10.19;82.40
21129;BME280;10722;51.910;8.352;2023-03-25T11:46:40;99393.50;;;10.28;83.23
21129;BME280;10722;51.910;8.352;2023-03-25T11:49:27;99389.22;;;9.91;83.61
21129;BME280;10722;51.910;8.352;2023-03-25T11:52:20;99395.19;;;10.20;83.91
21129;BME280;10722;51.910;8.352;2023-03-25T11:55:16;99402.94;;;10.26;83.42
21129;BME280;10722;51.910;8.352;2023-03-25T11:58:03;99377.16;;;10.03;83.77
21129;BME280;10722;51.910;8.352;2023-03-25T12:00:51;99409.84;;;10.10;83.88
21129;BME280;10722;51.910;8.352;2023-03-25T12:03:45;99407.31;;;9.89;84.84
21129;BME280;10722;51.910;8.352;2023-03-25T12:06:31;99421.94;;;9.87;85.72
21129;BME280;10722;51.910;8.352;2023-03-25T12:09:16;99445.19;;;9.81;85.64
21129;BME280;10722;51.910;8.352;2023-03-25T12:18:29;99421.84;;;10.59;85.49
21129;BME280;10722;51.910;8.352;2023-03-25T12:21:35;99376.16;;;10.57;84.16
21129;BME280;10722;51.910;8.352;2023-03-25T12:43:10;99393.53;;;9.87;84.67
21129;BME280;10722;51.910;8.352;2023-03-25T12:46:05;99369.41;;;10.03;84.11
21129;BME280;10722;51.910;8.352;2023-03-25T12:49:19;99365.91;;;10.18;83.55
21129;BME280;10722;51.910;8.352;2023-03-25T12:58:50;99463.25;;;9.52;89.51
21129;BME280;10722;51.910;8.352;2023-03-25T13:07:55;99566.16;;;8.78;99.67
21129;BME280;10722;51.910;8.352;2023-03-25T13:10:42;99552.34;;;8.67;100.00
21129;BME280;10722;51.910;8.352;2023-03-25T13:13:28;99577.16;;;8.52;100.00
21129;BME280;10722;51.910;8.352;2023-03-25T13:16:18;99575.56;;;8.70;100.00
21129;BME280;10722;51.910;8.352;2023-03-25T13:19:30;99585.06;;;8.74;100.00
21129;BME280;10722;51.910;8.352;2023-03-25T13:22:24;99570.34;;;8.59;100.00
21129;BME280;10722;51.910;8.352;2023-03-25T13:25:23;99542.72;;;8.40;100.00
21129;BME280;10722;51.910;8.352;2023-03-25T13:28:17;99563.16;;;8.24;100.00
21129;BME280;10722;51.910;8.352;2023-03-25T13:31:05;99568.41;;;8.34;100.00
21129;BME280;10722;51.910;8.352;2023-03-25T13:34:00;99566.81;;;8.46;100.00
21129;BME280;10722;51.910;8.352;2023-03-25T13:43:01;99516.44;;;9.08;100.00
21129;BME280;10722;51.910;8.352;2023-03-25T13:46:08;99514.84;;;9.36;100.00
21129;BME280;10722;51.910;8.352;2023-03-25T13:52:12;99500.25;;;9.55;100.00
21129;BME280;10722;51.910;8.352;2023-03-25T13:55:12;99489.94;;;9.49;100.00
21129;BME280;10722;51.910;8.352;2023-03-25T14:11:00;99500.09;;;9.09;100.00
21129;BME280;10722;51.910;8.352;2023-03-25T14:14:02;99484.66;;;9.14;100.00
21129;BME280;10722;51.910;8.352;2023-03-25T14:16:55;99481.19;;;9.12;100.00
21129;BME280;10722;51.910;8.352;2023-03-25T14:19:50;99492.41;;;9.12;100.00
21129;BME280;10722;51.910;8.352;2023-03-25T14:22:38;99490.66;;;9.08;100.00
21129;BME280;10722;51.910;8.352;2023-03-25T14:28:41;99504.34;;;8.90;100.00
21129;BME280;10722;51.910;8.352;2023-03-25T14:31:33;99523.16;;;8.74;100.00
21129;BME280;10722;51.910;8.352;2023-03-25T14:34:22;99533.56;;;8.89;100.00
21129;BME280;10722;51.910;8.352;2023-03-25T14:37:22;99552.44;;;8.82;100.00
21129;BME280;10722;51.910;8.352;2023-03-25T14:43:45;99541.00;;;8.40;100.00
21129;BME280;10722;51.910;8.352;2023-03-25T14:46:38;99538.47;;;8.48;100.00
21129;BME280;10722;51.910;8.352;2023-03-25T14:49:53;99540.28;;;8.60;100.00
21129;BME280;10722;51.910;8.352;2023-03-25T14:52:42;99542.81;;;8.57;100.00
21129;BME280;10722;51.910;8.352;2023-03-25T14:55:45;99536.88;;;8.70;100.00
21129;BME280;10722;51.910;8.352;2023-03-25T14:58:36;99535.19;;;8.70;100.00
21129;BME280;10722;51.910;8.352;2023-03-25T15:01:29;99557.50;;;8.67;100.00
21129;BME280;10722;51.910;8.352;2023-03-25T15:04:35;99573.88;;;8.75;100.00
21129;BME280;10722;51.910;8.352;2023-03-25T15:13:26;99549.88;;;8.87;100.00
21129;BME280;10722;51.910;8.352;2023-03-25T15:16:16;99545.53;;;8.81;100.00
21129;BME280;10722;51.910;8.352;2023-03-25T15:19:13;99531.13;;;9.18;100.00
21129;BME280;10722;51.910;8.352;2023-03-25T15:22:18;99534.59;;;9.34;100.00
21129;BME280;10722;51.910;8.352;2023-03-25T15:25:14;99524.22;;;9.13;100.00
21129;BME280;10722;51.910;8.352;2023-03-25T15:41:07;99494.03;;;8.90;100.00
21129;BME280;10722;51.910;8.352;2023-03-25T15:55:54;99486.47;;;9.47;100.00
21129;BME280;10722;51.910;8.352;2023-03-25T15:58:50;99486.28;;;8.98;100.00
21129;BME280;10722;51.910;8.352;2023-03-25T16:01:40;99482.75;;;8.74;100.00
21129;BME280;10722;51.910;8.352;2023-03-25T16:04:41;99490.44;;;8.62;100.00
21129;BME280;10722;51.910;8.352;2023-03-25T16:07:28;99497.31;;;8.62;100.00
21129;BME280;10722;51.910;8.352;2023-03-25T16:10:18;99476.69;;;8.60;100.00
21129;BME280;10722;51.910;8.352;2023-03-25T16:13:12;99486.97;;;8.54;100.00
21129;BME280;10722;51.910;8.352;2023-03-25T16:15:57;99492.09;;;8.51;100.00
21129;BME280;10722;51.910;8.352;2023-03-25T16:18:44;99492.09;;;8.51;100.00
21129;BME280;10722;51.910;8.352;2023-03-25T16:21:30;99490.34;;;8.45;100.00
21129;BME280;10722;51.910;8.352;2023-03-25T16:24:16;99493.78;;;8.47;100.00
21129;BME280;10722;51.910;8.352;2023-03-25T16:27:17;99500.69;;;8.51;100.00
21129;BME280;10722;51.910;8.352;2023-03-25T16:30:38;99504.16;;;8.57;100.00
21129;BME280;10722;51.910;8.352;2023-03-25T16:33:27;99489.63;;;8.68;100.00
21129;BME280;10722;51.910;8.352;2023-03-25T16:36:15;99487.09;;;8.80;100.00
21129;BME280;10722;51.910;8.352;2023-03-25T16:39:01;99483.69;;;8.84;100.00
21129;BME280;10722;51.910;8.352;2023-03-25T16:41:48;99485.47;;;9.04;100.00
21129;BME280;10722;51.910;8.352;2023-03-25T16:44:34;99469.97;;;9.04;100.00
21129;BME280;10722;51.910;8.352;2023-03-25T16:47:20;99474.28;;;8.97;100.00
21129;BME280;10722;51.910;8.352;2023-03-25T16:50:06;99526.72;;;8.93;100.00
21129;BME280;10722;51.910;8.352;2023-03-25T16:53:00;99562.78;;;8.85;100.00
21129;BME280;10722;51.910;8.352;2023-03-25T16:55:47;99565.91;;;8.40;100.00
21129;BME280;10722;51.910;8.352;2023-03-25T16:58:35;99571.69;;;8.17;100.00
21129;BME280;10722;51.910;8.352;2023-03-25T17:01:21;99569.94;;;8.12;100.00
21129;BME280;10722;51.910;8.352;2023-03-25T17:07:03;99581.75;;;7.93;100.00
21129;BME280;10722;51.910;8.352;2023-03-25T17:09:50;99574.00;;;7.91;100.00
21129;BME280;10722;51.910;8.352;2023-03-25T17:12:41;99579.22;;;7.94;100.00
21129;BME280;10722;51.910;8.352;2023-03-25T17:15:27;99594.69;;;7.97;100.00
21129;BME280;10722;51.910;8.352;2023-03-25T17:18:15;99594.63;;;7.90;100.00
21129;BME280;10722;51.910;8.352;2023-03-25T17:21:01;99599.72;;;7.88;100.00
21129;BME280;10722;51.910;8.352;2023-03-25T17:23:46;99606.63;;;7.91;100.00
21129;BME280;10722;51.910;8.352;2023-03-25T17:26:34;99609.34;;;8.03;100.00
21129;BME280;10722;51.910;8.352;2023-03-25T17:29:51;99613.69;;;8.10;100.00